Time;durP1;ratioP1;P1;durP2;ratioP2;P2;SDS_P1;SDS_P2;PMS_P1;PMS_P2;Temp;Humidity;BMP_temperature;BMP_pressure;BME280_temperature;BME280_humidity;BME280_pressure;Samples;Min_cycle;Max_cycle;Signal;HPM_P1;HPM_P2
2023/06/03 00:03:31;;;;;;;7.57;3.55;;;;;;;12.56;87.39;99931.84;12207068;19;20015;-80
2023/06/03 00:07:37;;;;;;;5.78;3.22;;;;;;;12.50;88.46;99939.25;12232165;19;20022;-79
2023/06/03 00:11:38;;;;;;;8.95;3.38;;;;;;;12.46;89.70;99932.56;12205397;19;20007;-81
2023/06/03 00:15:40;;;;;;;6.30;2.72;;;;;;;12.39;89.00;99927.25;12217633;19;20074;-80
2023/06/03 00:19:42;;;;;;;8.65;3.20;;;;;;;12.33;89.06;99939.31;12219550;19;20010;-79
2023/06/03 00:23:45;;;;;;;9.30;3.60;;;;;;;12.28;90.63;99940.13;12193724;19;20007;-81
2023/06/03 00:27:49;;;;;;;8.32;3.05;;;;;;;12.23;91.21;99945.56;12215252;19;20031;-81
2023/06/03 00:31:51;;;;;;;5.13;2.92;;;;;;;12.19;91.53;99940.81;12195333;19;20038;-80
2023/06/03 00:35:53;;;;;;;4.77;2.80;;;;;;;12.17;92.04;99935.56;12218165;19;20372;-81
2023/06/03 00:39:54;;;;;;;7.40;3.45;;;;;;;12.14;92.81;99935.25;12217711;19;20006;-80
2023/06/03 00:43:56;;;;;;;14.70;3.63;;;;;;;12.09;92.72;99939.59;12189877;19;20075;-81
2023/06/03 00:47:58;;;;;;;7.68;3.33;;;;;;;12.08;92.56;99939.88;12216834;19;20017;-81
2023/06/03 00:52:06;;;;;;;7.00;3.40;;;;;;;12.07;92.35;99936.25;12208142;19;20021;-80
2023/06/03 00:56:07;;;;;;;10.70;3.25;;;;;;;12.04;92.90;99930.41;12192967;19;20086;-81
2023/06/03 01:00:10;;;;;;;8.80;3.28;;;;;;;12.03;91.98;99931.50;12215164;19;20006;-79
2023/06/03 01:04:18;;;;;;;13.63;3.08;;;;;;;12.04;92.61;99927.63;12253145;19;20007;-77
2023/06/03 01:08:55;;;;;;;8.20;3.00;;;;;;;12.02;93.10;99927.09;12216483;19;20050;-78
2023/06/03 01:13:01;;;;;;;8.48;2.78;;;;;;;12.02;92.97;99922.38;12214719;19;20011;-82
2023/06/03 01:17:15;;;;;;;6.63;3.35;;;;;;;12.04;92.32;99924.88;12258099;19;20360;-83
2023/06/03 01:21:17;;;;;;;6.57;3.50;;;;;;;12.02;92.36;99925.16;12274542;19;20014;-81
2023/06/03 01:25:20;;;;;;;7.18;3.33;;;;;;;11.96;92.87;99914.31;12273579;19;20006;-81
2023/06/03 01:29:23;;;;;;;8.02;3.30;;;;;;;11.95;92.80;99920.91;12252532;19;20006;-81
2023/06/03 01:33:28;;;;;;;6.80;3.00;;;;;;;11.91;92.30;99915.06;12269533;19;20821;-81
2023/06/03 01:37:31;;;;;;;8.02;3.28;;;;;;;11.84;93.08;99914.38;12271213;19;20006;-83
2023/06/03 01:41:34;;;;;;;10.27;3.63;;;;;;;11.80;94.75;99908.53;12245672;19;20016;-80
2023/06/03 01:45:37;;;;;;;9.20;2.90;;;;;;;11.78;94.95;99907.97;12275833;19;20945;-82
2023/06/03 01:49:40;;;;;;;9.90;3.10;;;;;;;11.79;94.29;99912.38;12273202;19;20038;-81
2023/06/03 01:53:41;;;;;;;7.40;3.27;;;;;;;11.76;95.11;99914.81;12244466;19;20011;-79
2023/06/03 01:57:46;;;;;;;9.15;3.90;;;;;;;11.70;96.33;99904.81;12269863;19;20018;-82
2023/06/03 02:01:53;;;;;;;9.98;3.05;;;;;;;11.69;95.36;99911.41;12256609;19;20014;-81
2023/06/03 02:05:55;;;;;;;8.93;3.25;;;;;;;11.63;96.40;99908.59;12270326;19;20029;-81
2023/06/03 02:09:58;;;;;;;7.17;3.03;;;;;;;11.57;96.93;99905.97;12272504;19;20131;-83
2023/06/03 02:14:00;;;;;;;9.52;3.85;;;;;;;11.53;97.19;99915.88;12244766;19;20010;-82
2023/06/03 02:18:03;;;;;;;7.25;4.10;;;;;;;11.48;97.67;99904.75;12268092;19;20580;-81
2023/06/03 02:22:05;;;;;;;7.30;3.63;;;;;;;11.46;98.63;99913.28;12265742;19;20006;-82
2023/06/03 02:26:07;;;;;;;7.53;3.53;;;;;;;11.47;98.45;99903.91;12229464;19;20042;-81
2023/06/03 02:30:10;;;;;;;9.90;4.30;;;;;;;11.45;98.74;99900.59;12216785;19;20015;-81
2023/06/03 02:34:12;;;;;;;10.23;3.65;;;;;;;11.43;99.01;99896.41;12219590;19;20767;-82
2023/06/03 02:38:14;;;;;;;8.52;3.63;;;;;;;11.43;99.42;99901.94;12188821;19;20007;-82
2023/06/03 02:42:16;;;;;;;9.73;4.53;;;;;;;11.41;99.79;99907.69;12221590;19;20285;-83
2023/06/03 02:46:18;;;;;;;9.93;3.40;;;;;;;11.46;99.43;99901.44;12225257;19;20571;-82
2023/06/03 02:50:21;;;;;;;8.52;4.05;;;;;;;11.46;99.48;99898.66;12200781;19;20019;-80
2023/06/03 02:54:23;;;;;;;9.68;3.50;;;;;;;11.43;99.65;99899.19;12221474;19;20017;-82
2023/06/03 02:58:25;;;;;;;9.15;4.68;;;;;;;11.43;100.00;99907.47;12223249;19;20014;-85
2023/06/03 03:02:27;;;;;;;9.35;3.38;;;;;;;11.40;99.74;99909.63;12197965;19;20422;-81
2023/06/03 03:06:29;;;;;;;11.18;3.45;;;;;;;11.38;100.00;99906.28;12216977;19;20022;-81
2023/06/03 03:10:31;;;;;;;9.80;3.90;;;;;;;11.37;100.00;99909.28;12218729;19;20027;-83
2023/06/03 03:14:32;;;;;;;11.27;3.85;;;;;;;11.37;100.00;99909.28;12196669;19;20011;-81
2023/06/03 03:18:36;;;;;;;14.57;5.20;;;;;;;11.36;100.00;99913.13;12218075;19;20006;-81
2023/06/03 03:22:44;;;;;;;11.55;4.03;;;;;;;11.33;100.00;99905.34;12217466;19;20026;-81
2023/06/03 03:26:49;;;;;;;8.77;4.15;;;;;;;11.33;100.00;99910.88;12195795;19;20527;-82
2023/06/03 03:30:55;;;;;;;12.07;4.22;;;;;;;11.32;100.00;99910.03;12217496;19;20015;-81
2023/06/03 03:35:15;;;;;;;6.38;3.80;;;;;;;11.31;100.00;99911.13;12193136;19;20010;-80
2023/06/03 03:39:19;;;;;;;8.68;3.97;;;;;;;11.29;100.00;99905.03;12210734;19;20030;-78
2023/06/03 03:43:26;;;;;;;9.10;3.75;;;;;;;11.32;100.00;99910.03;12216520;19;20037;-81
2023/06/03 03:47:28;;;;;;;10.00;4.38;;;;;;;11.33;100.00;99914.50;12194405;19;20402;-84
2023/06/03 03:51:34;;;;;;;7.50;4.00;;;;;;;11.34;100.00;99913.41;12212416;19;20110;-82
2023/06/03 03:55:49;;;;;;;11.15;4.20;;;;;;;11.32;100.00;99912.81;12212467;19;20011;-82
2023/06/03 03:59:53;;;;;;;8.63;4.00;;;;;;;11.31;100.00;99921.34;12193661;19;20030;-79
2023/06/03 04:03:57;;;;;;;9.48;3.60;;;;;;;11.32;100.00;99921.06;12213186;19;20011;-80
2023/06/03 04:07:59;;;;;;;10.45;4.05;;;;;;;11.32;100.00;99923.00;12193651;19;20064;-79
2023/06/03 04:12:06;;;;;;;10.05;3.72;;;;;;;11.31;100.00;99921.34;12224103;19;20017;-80
2023/06/03 04:16:11;;;;;;;9.52;3.95;;;;;;;11.33;100.00;99913.63;12232644;19;20067;-83
2023/06/03 04:20:41;;;;;;;11.18;4.13;;;;;;;11.36;100.00;99924.16;12201848;19;20519;-82
2023/06/03 04:24:43;;;;;;;6.57;3.70;;;;;;;11.36;100.00;99916.75;12219746;19;20014;-83
2023/06/03 04:28:45;;;;;;;8.90;4.50;;;;;;;11.40;100.00;99923.41;12219206;19;20441;-83
2023/06/03 04:32:49;;;;;;;11.27;3.75;;;;;;;11.43;100.00;99918.50;12195780;19;20014;-82
2023/06/03 04:36:54;;;;;;;9.73;4.28;;;;;;;11.47;100.00;99923.22;12214208;19;20037;-81
2023/06/03 04:40:56;;;;;;;8.17;3.37;;;;;;;11.51;100.00;99924.41;12232833;19;20327;-77
2023/06/03 04:44:59;;;;;;;9.48;3.80;;;;;;;11.55;100.00;99921.97;12223183;19;20419;-82
2023/06/03 04:49:09;;;;;;;10.30;4.38;;;;;;;11.63;100.00;99936.19;12219351;19;20015;-82
2023/06/03 04:53:12;;;;;;;;;;;;;;;11.69;100.00;99933.47;12190140;19;20471;-82
2023/06/03 04:57:15;;;;;;;8.70;3.55;;;;;;;11.79;99.49;99928.13;12212861;19;19942;-83
2023/06/03 05:01:21;;;;;;;6.20;4.70;;;;;;;11.85;99.52;99929.88;12210625;19;20078;-83
2023/06/03 05:05:24;;;;;;;7.40;3.70;;;;;;;11.94;98.13;99924.75;12192860;19;20033;-81
2023/06/03 05:09:26;;;;;;;9.57;3.65;;;;;;;12.06;97.36;99928.22;12213103;19;20006;-82
2023/06/03 05:13:30;;;;;;;7.43;3.30;;;;;;;12.18;96.65;99923.41;12212697;19;20010;-82
2023/06/03 05:17:32;;;;;;;9.63;4.13;;;;;;;12.29;95.61;99932.66;12195314;19;20047;-84
2023/06/03 05:21:34;;;;;;;6.87;3.03;;;;;;;12.47;94.24;99921.25;12220988;19;20019;-83
2023/06/03 05:25:36;;;;;;;7.93;3.77;;;;;;;12.63;92.72;99927.78;12216866;19;20015;-80
2023/06/03 05:29:38;;;;;;;5.93;3.08;;;;;;;12.76;91.63;99930.13;12188801;19;20274;-80
2023/06/03 05:33:41;;;;;;;;;;;;;;;12.91;90.18;99925.81;12213176;19;20003;-80
2023/06/03 05:37:50;;;;;;;7.18;3.63;;;;;;;13.16;88.01;99933.53;12195336;19;19902;-79
2023/06/03 05:41:52;;;;;;;5.40;3.08;;;;;;;13.47;85.48;99934.63;12211387;19;20337;-81
2023/06/03 05:45:54;;;;;;;6.60;3.13;;;;;;;13.76;83.59;99926.78;12209425;19;20067;-77
2023/06/03 05:49:57;;;;;;;;;;;;;;;13.97;82.60;99941.56;12186400;19;20018;-79
2023/06/03 05:53:59;;;;;;;9.32;3.03;;;;;;;14.18;81.58;99927.81;12203181;19;19919;-81
2023/06/03 05:58:01;;;;;;;6.63;2.60;;;;;;;14.32;80.34;99934.53;12189191;19;20011;-81
2023/06/03 06:02:05;;;;;;;7.82;3.05;;;;;;;14.35;79.22;99934.00;12197831;19;20034;-81
2023/06/03 06:06:07;;;;;;;8.55;2.97;;;;;;;14.44;77.56;99935.13;12227598;19;20049;-80
2023/06/03 06:10:09;;;;;;;5.57;3.15;;;;;;;14.65;76.11;99935.22;12224711;19;20359;-78
2023/06/03 06:14:12;;;;;;;6.45;3.15;;;;;;;14.79;75.02;99922.50;12204572;19;20015;-82
2023/06/03 06:18:15;;;;;;;6.97;2.72;;;;;;;14.95;73.51;99926.09;12228154;19;20078;-82
2023/06/03 06:22:18;;;;;;;4.67;2.50;;;;;;;15.12;72.76;99929.47;12226235;19;20011;-81
2023/06/03 06:26:20;;;;;;;7.97;2.70;;;;;;;15.29;71.98;99920.84;12203638;19;20095;-78
2023/06/03 06:30:26;;;;;;;6.20;2.85;;;;;;;15.47;71.82;99931.38;12229668;19;20087;-82
2023/06/03 06:34:31;;;;;;;8.32;2.90;;;;;;;15.63;70.52;99929.41;12229451;19;20391;-78
2023/06/03 06:38:34;;;;;;;10.50;3.00;;;;;;;15.64;69.02;99931.06;12208150;19;20472;-79
2023/06/03 06:42:40;;;;;;;9.73;3.03;;;;;;;15.59;69.30;99938.59;12226668;19;20007;-81
2023/06/03 06:46:57;;;;;;;7.47;2.95;;;;;;;15.62;68.89;99933.31;12200763;19;20018;-80
2023/06/03 06:50:59;;;;;;;7.13;2.97;;;;;;;15.82;68.71;99937.19;12230225;19;20007;-81
2023/06/03 06:55:33;;;;;;;6.45;3.05;;;;;;;15.96;68.81;99938.25;12227666;19;20021;-80
2023/06/03 06:59:35;;;;;;;4.82;3.03;;;;;;;16.29;67.69;99949.81;12211756;19;20010;-80
2023/06/03 07:03:37;;;;;;;5.70;2.93;;;;;;;16.40;65.43;99938.38;12230758;19;20409;-81
2023/06/03 07:07:40;;;;;;;;;;;;;;;16.64;66.12;99940.47;12231029;19;20849;-82
2023/06/03 07:11:46;;;;;;;6.22;2.67;;;;;;;17.03;65.47;99939.69;12203627;19;19919;-80
2023/06/03 07:15:51;;;;;;;13.45;2.47;;;;;;;17.23;64.45;99938.72;12227094;19;20006;-83
2023/06/03 07:19:54;;;;;;;8.70;3.05;;;;;;;17.46;62.57;99937.09;12210929;19;20010;-82
2023/06/03 07:23:56;;;;;;;6.45;2.75;;;;;;;17.65;61.99;99945.59;12227694;19;20081;-83
2023/06/03 07:27:58;;;;;;;8.90;2.85;;;;;;;17.54;61.74;99940.09;12232651;19;20099;-80
2023/06/03 07:32:01;;;;;;;6.10;2.80;;;;;;;17.63;62.27;99947.81;12206164;19;20022;-81
2023/06/03 07:36:03;;;;;;;6.60;3.05;;;;;;;18.05;59.99;99949.91;12231021;19;20011;-81
2023/06/03 07:40:18;;;;;;;12.60;3.00;;;;;;;18.31;59.13;99944.03;12231364;19;20014;-83
2023/06/03 07:44:42;;;;;;;5.57;2.72;;;;;;;18.54;59.54;99945.97;12212060;19;20020;-82
2023/06/03 07:48:44;;;;;;;6.13;3.72;;;;;;;19.11;57.01;99946.00;12233047;19;20007;-83
2023/06/03 07:52:46;;;;;;;5.38;2.80;;;;;;;19.62;56.34;99952.72;12233822;19;20480;-83
2023/06/03 07:56:48;;;;;;;6.70;2.90;;;;;;;19.77;55.31;99956.09;12213425;19;20010;-81
2023/06/03 08:00:54;;;;;;;6.40;2.75;;;;;;;20.18;53.20;99952.50;12234782;19;20007;-81
2023/06/03 08:05:00;;;;;;;5.40;3.05;;;;;;;20.55;51.46;99947.03;12215050;19;20006;-81
2023/06/03 08:09:02;;;;;;;6.10;3.10;;;;;;;20.38;51.40;99954.06;12227470;19;20010;-81
2023/06/03 08:13:05;;;;;;;6.90;3.67;;;;;;;20.49;51.20;99954.66;12230029;19;20015;-83
2023/06/03 08:17:10;;;;;;;10.50;3.73;;;;;;;20.58;49.85;99952.00;12213868;19;20011;-83
2023/06/03 08:21:12;;;;;;;8.57;3.33;;;;;;;20.66;49.60;99949.28;12235945;19;20345;-83
2023/06/03 08:25:15;;;;;;;7.75;3.60;;;;;;;20.78;50.89;99954.34;12234179;19;20029;-82
2023/06/03 08:29:21;;;;;;;8.32;3.75;;;;;;;21.00;50.14;99952.72;12210514;19;20087;-81
2023/06/03 08:33:22;;;;;;;9.32;3.40;;;;;;;21.20;48.91;99957.03;12230821;19;20002;-81
2023/06/03 08:37:25;;;;;;;6.40;2.83;;;;;;;21.26;48.68;99962.19;12228094;19;20506;-81
2023/06/03 08:41:37;;;;;;;9.32;3.00;;;;;;;21.27;47.95;99955.44;12208188;19;20517;-81
2023/06/03 08:46:01;;;;;;;9.00;3.88;;;;;;;21.41;47.61;99952.59;12226182;19;20007;-82
2023/06/03 08:50:08;;;;;;;7.78;3.55;;;;;;;21.64;47.79;99949.78;12208350;19;20542;-81
2023/06/03 08:54:13;;;;;;;5.18;3.28;;;;;;;21.77;46.84;99966.56;12229171;19;20011;-82
2023/06/03 08:58:19;;;;;;;6.15;3.55;;;;;;;21.99;46.33;99950.81;12231160;19;20007;-82
2023/06/03 09:02:22;;;;;;;6.70;3.17;;;;;;;22.30;45.77;99960.03;12209657;19;20478;-85
2023/06/03 09:06:23;;;;;;;;;;;;;;;22.45;44.21;99961.56;12225219;19;20475;-80
2023/06/03 09:10:26;;;;;;;5.20;3.10;;;;;;;22.78;43.85;99954.72;12223020;19;19918;-83
2023/06/03 09:14:29;;;;;;;;;;;;;;;22.82;43.23;99956.56;12208870;19;20006;-84
2023/06/03 09:18:31;;;;;;;;;;;;;;;22.97;43.51;99955.28;12219414;19;19927;-81
2023/06/03 09:22:35;;;;;;;9.05;3.63;;;;;;;23.54;42.81;99952.28;12223779;19;20537;-78
2023/06/03 09:26:37;;;;;;;10.10;3.58;;;;;;;23.87;41.46;99951.72;12199389;19;20492;-82
2023/06/03 09:30:39;;;;;;;6.55;2.83;;;;;;;24.15;40.84;99948.47;12214354;19;20007;-81
2023/06/03 09:34:43;;;;;;;7.95;3.70;;;;;;;24.20;40.20;99949.13;12223600;19;20019;-81
2023/06/03 09:38:53;;;;;;;7.40;2.75;;;;;;;24.05;39.51;99960.94;12210155;19;20006;-82
2023/06/03 09:42:56;;;;;;;9.15;3.22;;;;;;;24.33;39.79;99950.91;12242324;19;20003;-79
2023/06/03 09:46:57;;;;;;;5.60;3.17;;;;;;;25.00;37.45;99951.16;12218759;19;20356;-82
2023/06/03 09:51:00;;;;;;;6.53;3.63;;;;;;;25.42;37.80;99957.63;12233860;19;20045;-81
2023/06/03 09:55:05;;;;;;;5.97;3.38;;;;;;;25.88;37.30;99950.06;12257136;19;19999;-80
2023/06/03 09:59:15;;;;;;;5.00;3.30;;;;;;;25.96;36.30;99945.47;12221926;19;20018;-82
2023/06/03 10:03:21;;;;;;;7.85;3.67;;;;;;;25.53;36.87;99954.41;12235596;19;20006;-80
2023/06/03 10:07:22;;;;;;;7.40;3.75;;;;;;;24.93;36.62;99951.72;12234802;19;20014;-82
2023/06/03 10:11:24;;;;;;;9.85;3.08;;;;;;;24.77;37.63;99948.66;12209828;19;20014;-82
2023/06/03 10:15:37;;;;;;;9.27;4.22;;;;;;;24.78;37.02;99946.69;12225840;19;20003;-81
2023/06/03 10:19:41;;;;;;;9.80;3.80;;;;;;;25.09;37.37;99953.91;12235707;19;20018;-82
2023/06/03 10:23:43;;;;;;;8.30;3.80;;;;;;;25.79;36.48;99948.47;12206867;19;20017;-83
2023/06/03 10:27:46;;;;;;;10.63;3.63;;;;;;;25.75;35.43;99939.06;12232294;19;20007;-83
2023/06/03 10:31:50;;;;;;;4.70;3.30;;;;;;;25.49;35.63;99942.16;12226754;19;20023;-77
2023/06/03 10:35:52;;;;;;;5.78;3.03;;;;;;;25.10;36.00;99931.00;12206472;19;20010;-83
2023/06/03 10:39:54;;;;;;;4.45;3.25;;;;;;;25.14;35.66;99931.19;12228654;19;20027;-83
2023/06/03 10:43:56;;;;;;;8.75;3.50;;;;;;;25.63;35.89;99931.38;12210152;19;20011;-81
2023/06/03 10:48:04;;;;;;;6.57;3.63;;;;;;;25.80;34.76;99925.53;12230894;19;20384;-79
2023/06/03 10:52:25;;;;;;;8.15;3.55;;;;;;;26.60;35.11;99938.38;12233333;19;20018;-82
2023/06/03 10:56:38;;;;;;;7.45;3.60;;;;;;;26.87;33.91;99936.81;12206804;19;20028;-83
2023/06/03 11:01:06;;;;;;;5.25;3.45;;;;;;;27.00;32.66;99937.59;12228088;19;20075;-83
2023/06/03 11:05:22;;;;;;;8.95;4.18;;;;;;;27.11;32.90;99937.94;12204876;19;20018;-85
2023/06/03 11:09:39;;;;;;;12.20;3.65;;;;;;;26.68;33.38;99937.44;12220675;19;20009;-81
2023/06/03 11:13:41;;;;;;;8.20;3.72;;;;;;;26.75;32.98;99931.19;12219149;19;20011;-83
2023/06/03 11:18:13;;;;;;;7.78;3.58;;;;;;;26.96;32.81;99926.19;12201545;19;20031;-82
2023/06/03 11:22:27;;;;;;;11.93;3.40;;;;;;;26.34;33.12;99922.56;12224443;19;20032;-82
2023/06/03 11:26:31;;;;;;;7.15;3.92;;;;;;;26.07;34.05;99935.38;12204128;19;20282;-84
2023/06/03 11:30:53;;;;;;;7.00;3.65;;;;;;;26.65;34.10;99926.00;12222322;19;20014;-82
2023/06/03 11:35:28;;;;;;;9.07;3.93;;;;;;;26.95;33.18;99923.69;12202492;19;20625;-81
2023/06/03 11:40:00;;;;;;;4.40;3.35;;;;;;;27.13;31.72;99924.22;12222962;19;20514;-80
2023/06/03 11:44:36;;;;;;;9.32;3.75;;;;;;;27.55;32.12;99919.03;12208829;19;20089;-84
2023/06/03 11:48:38;;;;;;;7.35;3.97;;;;;;;27.67;31.94;99921.78;12220506;19;20400;-82
2023/06/03 11:52:39;;;;;;;;;;;;;;;27.72;31.03;99924.38;12224262;19;20018;-81
2023/06/03 11:56:50;;;;;;;6.68;3.55;;;;;;;27.67;31.42;99921.78;12200043;19;19915;-84
2023/06/03 12:01:17;;;;;;;6.25;3.88;;;;;;;27.90;30.78;99907.03;12219855;19;20007;-81
2023/06/03 12:05:20;;;;;;;5.43;3.58;;;;;;;27.31;31.80;99908.66;12202815;19;20017;-83
2023/06/03 12:09:24;;;;;;;6.60;4.00;;;;;;;27.11;31.89;99915.28;12226030;19;20064;-83
2023/06/03 12:13:37;;;;;;;9.32;4.22;;;;;;;26.67;32.14;99907.50;12220495;19;20384;-83
2023/06/03 12:17:40;;;;;;;7.38;4.18;;;;;;;28.09;31.45;99898.66;12201267;19;20375;-83
2023/06/03 12:21:41;;;;;;;10.35;3.80;;;;;;;29.17;30.38;99892.69;12225636;19;20014;-80
2023/06/03 12:25:43;;;;;;;9.38;4.15;;;;;;;30.18;28.44;99891.34;12226134;19;20040;-83
2023/06/03 12:29:55;;;;;;;13.80;4.82;;;;;;;30.86;26.89;99891.63;12204362;19;20027;-79
2023/06/03 12:33:58;;;;;;;7.63;3.65;;;;;;;31.56;26.50;99887.22;12221480;19;20019;-81
2023/06/03 12:38:06;;;;;;;;;;;;;;;31.78;24.73;99868.34;12206385;19;20002;-81
2023/06/03 12:42:08;;;;;;;8.00;4.43;;;;;;;32.60;24.89;99876.78;12231390;19;20015;-80
2023/06/03 12:46:18;;;;;;;13.38;4.65;;;;;;;33.28;24.26;99868.56;12224182;19;20010;-81
2023/06/03 12:50:22;;;;;;;10.20;4.65;;;;;;;33.40;24.09;99858.81;12200817;19;20142;-81
2023/06/03 12:54:25;;;;;;;5.65;4.35;;;;;;;33.78;23.65;99865.88;12214388;19;20011;-80
2023/06/03 12:58:27;;;;;;;8.75;5.03;;;;;;;32.52;24.12;99863.69;12223933;19;20472;-82
2023/06/03 13:02:29;;;;;;;9.27;4.63;;;;;;;33.50;23.89;99860.91;12198355;19;20550;-85
2023/06/03 13:06:31;;;;;;;8.43;4.88;;;;;;;34.34;22.81;99855.69;12222758;19;20015;-81
2023/06/03 13:10:32;;;;;;;8.82;4.68;;;;;;;35.02;22.57;99866.19;12222628;19;20011;-79
2023/06/03 13:14:35;;;;;;;7.78;4.55;;;;;;;35.67;21.38;99858.94;12196144;19;20014;-82
2023/06/03 13:18:36;;;;;;;19.13;5.70;;;;;;;34.17;22.09;99847.94;12213296;19;20016;-81
2023/06/03 13:22:40;;;;;;;8.93;4.50;;;;;;;32.52;24.42;99850.25;12219086;19;20429;-80
2023/06/03 13:26:41;;;;;;;7.85;4.65;;;;;;;33.92;23.01;99845.88;12194062;19;20011;-82
2023/06/03 13:30:43;;;;;;;7.32;4.88;;;;;;;35.70;21.85;99855.22;12216450;19;20035;-82
2023/06/03 13:34:45;;;;;;;6.82;4.45;;;;;;;36.23;20.27;99856.88;12212808;19;20031;-80
2023/06/03 13:38:49;;;;;;;6.88;4.05;;;;;;;36.16;20.51;99839.72;12198537;19;20006;-81
2023/06/03 13:42:51;;;;;;;8.18;4.25;;;;;;;34.27;22.15;99841.41;12218468;19;20014;-81
2023/06/03 13:46:53;;;;;;;10.25;6.00;;;;;;;35.13;20.83;99839.16;12195104;19;20010;-80
2023/06/03 13:50:57;;;;;;;8.05;5.00;;;;;;;33.41;22.08;99838.44;12223036;19;20021;-80
2023/06/03 13:54:59;;;;;;;8.95;4.30;;;;;;;32.63;23.28;99836.88;12218212;19;20678;-81
2023/06/03 13:59:02;;;;;;;8.85;4.55;;;;;;;34.20;21.92;99818.53;12198931;19;20074;-81
2023/06/03 14:03:05;;;;;;;9.00;5.28;;;;;;;35.66;21.13;99824.94;12215742;19;20578;-80
2023/06/03 14:07:07;;;;;;;8.60;4.38;;;;;;;37.11;19.98;99819.00;12216766;19;20003;-82
2023/06/03 14:11:09;;;;;;;6.97;3.97;;;;;;;37.57;19.35;99814.69;12192192;19;20006;-80
2023/06/03 14:15:10;;;;;;;8.63;3.92;;;;;;;35.49;20.19;99813.16;12209940;19;20074;-82
2023/06/03 14:19:12;;;;;;;7.18;4.32;;;;;;;34.85;20.72;99816.34;12206106;19;20585;-81
2023/06/03 14:23:14;;;;;;;5.20;4.00;;;;;;;36.45;19.70;99799.28;12194567;19;20977;-80
2023/06/03 14:27:16;;;;;;;6.65;4.68;;;;;;;37.95;18.69;99810.81;12228817;19;20010;-82
2023/06/03 14:31:18;;;;;;;6.18;4.32;;;;;;;39.08;17.38;99804.13;12224121;19;20014;-84
2023/06/03 14:35:35;;;;;;;5.20;4.13;;;;;;;39.22;17.43;99791.47;12203430;19;20007;-81
2023/06/03 14:39:36;;;;;;;4.90;4.07;;;;;;;39.74;16.45;99787.00;12229243;19;20036;-83
2023/06/03 14:43:38;;;;;;;7.53;4.05;;;;;;;39.70;16.49;99775.53;12232630;19;20090;-81
2023/06/03 14:47:40;;;;;;;6.70;4.10;;;;;;;40.16;16.38;99781.38;12207529;19;20046;-82
2023/06/03 14:51:42;;;;;;;7.93;4.15;;;;;;;40.17;15.92;99775.16;12227051;19;20013;-83
2023/06/03 14:55:47;;;;;;;6.70;4.07;;;;;;;40.06;16.01;99769.66;12224954;19;20038;-81
2023/06/03 14:59:49;;;;;;;4.90;4.28;;;;;;;38.00;16.88;99773.75;12201150;19;20031;-83
2023/06/03 15:03:50;;;;;;;4.68;3.80;;;;;;;38.70;16.75;99767.06;12221778;19;20007;-82
2023/06/03 15:07:52;;;;;;;8.13;4.85;;;;;;;39.39;16.21;99763.53;12201266;19;20029;-81
2023/06/03 15:11:54;;;;;;;6.82;5.60;;;;;;;37.88;17.09;99762.84;12220651;19;20397;-82
2023/06/03 15:15:55;;;;;;;5.60;4.20;;;;;;;36.01;18.58;99770.16;12219606;19;20010;-84
2023/06/03 15:19:57;;;;;;;7.28;4.15;;;;;;;33.27;20.80;99764.16;12208908;19;20013;-80
2023/06/03 15:24:00;;;;;;;5.93;3.95;;;;;;;31.24;22.57;99770.13;12242176;19;20022;-83
2023/06/03 15:28:02;;;;;;;6.90;3.88;;;;;;;30.20;23.56;99765.94;12227213;19;20014;-84
2023/06/03 15:32:04;;;;;;;;;;;;;;;28.95;24.09;99756.03;12206147;19;20014;-83
2023/06/03 15:36:07;;;;;;;8.60;3.75;;;;;;;28.13;24.96;99746.56;12224992;19;20005;-83
2023/06/03 15:40:10;;;;;;;5.47;3.25;;;;;;;27.71;25.92;99758.50;12227228;19;20775;-83
2023/06/03 15:44:14;;;;;;;6.63;3.42;;;;;;;27.23;26.37;99754.84;12199659;19;20018;-83
2023/06/03 15:48:16;;;;;;;9.25;3.85;;;;;;;26.69;27.35;99758.19;12222023;19;19998;-82
2023/06/03 15:52:18;;;;;;;6.18;3.10;;;;;;;26.02;27.95;99757.72;12219406;19;20094;-82
2023/06/03 15:56:19;;;;;;;5.60;2.83;;;;;;;25.58;28.68;99760.31;12198269;19;20090;-82
2023/06/03 16:00:21;;;;;;;5.78;3.53;;;;;;;25.28;29.26;99751.22;12218950;19;20425;-82
2023/06/03 16:04:23;;;;;;;7.03;3.47;;;;;;;25.27;28.77;99741.13;12215739;19;20066;-82
2023/06/03 16:08:27;;;;;;;3.95;2.75;;;;;;;25.13;29.04;99740.59;12196765;19;20010;-82
2023/06/03 16:12:28;;;;;;;8.50;3.50;;;;;;;24.88;29.74;99736.91;12214178;19;20098;-82
2023/06/03 16:16:31;;;;;;;6.18;3.05;;;;;;;24.59;29.83;99741.47;12212519;19;20344;-82
2023/06/03 16:20:33;;;;;;;7.90;3.20;;;;;;;24.26;31.03;99738.59;12190691;19;20006;-81
2023/06/03 16:24:36;;;;;;;8.23;3.45;;;;;;;24.18;31.18;99731.84;12221256;19;20015;-83
2023/06/03 16:28:38;;;;;;;7.20;3.20;;;;;;;24.33;30.49;99730.41;12220027;19;20014;-82
2023/06/03 16:32:40;;;;;;;6.37;3.13;;;;;;;24.37;30.92;99733.38;12194666;19;20056;-81
2023/06/03 16:36:41;;;;;;;6.40;2.80;;;;;;;24.38;30.40;99735.84;12217544;19;20029;-82
2023/06/03 16:40:43;;;;;;;6.07;3.00;;;;;;;24.39;30.65;99731.88;12218762;19;20244;-83
2023/06/03 16:44:45;;;;;;;6.57;3.13;;;;;;;24.48;29.99;99727.00;12189735;19;20031;-83
2023/06/03 16:48:47;;;;;;;10.00;2.63;;;;;;;24.50;30.28;99735.91;12217330;19;20304;-82
2023/06/03 16:52:49;;;;;;;6.03;2.70;;;;;;;24.56;30.50;99730.91;12216098;19;20014;-80
2023/06/03 16:56:51;;;;;;;4.50;2.55;;;;;;;24.51;29.88;99733.91;12197260;19;20057;-80
2023/06/03 17:00:52;;;;;;;8.27;4.10;;;;;;;24.45;30.06;99736.16;12215491;19;20006;-83
2023/06/03 17:04:56;;;;;;;24.90;16.60;;;;;;;24.47;30.47;99730.97;12194057;19;20007;-81
2023/06/03 17:08:58;;;;;;;7.57;4.20;;;;;;;24.45;30.41;99732.50;12213861;19;20011;-83
2023/06/03 17:13:00;;;;;;;5.90;3.37;;;;;;;24.38;30.38;99735.00;12221618;19;20459;-81
2023/06/03 17:17:02;;;;;;;;;;;;;;;24.16;31.18;99731.38;12193556;19;20017;-83
2023/06/03 17:21:04;;;;;;;5.88;2.28;;;;;;;24.13;30.96;99728.44;12216786;19;19915;-82
2023/06/03 17:25:06;;;;;;;4.40;2.72;;;;;;;24.08;31.04;99733.09;12218438;19;20006;-82
2023/06/03 17:29:08;;;;;;;4.88;2.05;;;;;;;23.95;31.63;99737.00;12195251;19;20015;-80
2023/06/03 17:33:10;;;;;;;5.70;2.30;;;;;;;23.92;31.64;99732.06;12214899;19;20047;-82
2023/06/03 17:37:12;;;;;;;5.53;2.17;;;;;;;23.85;31.35;99737.38;12215778;19;20014;-82
2023/06/03 17:41:13;;;;;;;5.97;2.27;;;;;;;23.67;31.67;99743.06;12194362;19;20007;-82
2023/06/03 17:45:15;;;;;;;7.60;3.40;;;;;;;23.43;32.14;99742.88;12215674;19;20236;-82
2023/06/03 17:49:17;;;;;;;8.33;2.27;;;;;;;23.33;32.21;99732.81;12216127;19;20259;-83
2023/06/03 17:53:20;;;;;;;4.07;1.95;;;;;;;23.21;32.09;99743.97;12191536;19;20239;-82
2023/06/03 17:57:22;;;;;;;3.22;1.65;;;;;;;23.16;32.16;99744.97;12216445;19;20047;-82
2023/06/03 18:01:24;;;;;;;3.65;1.85;;;;;;;23.00;32.53;99745.84;12244533;19;20029;-82
2023/06/03 18:05:26;;;;;;;5.13;1.87;;;;;;;22.90;32.48;99747.81;12208459;19;20010;-81
2023/06/03 18:09:28;;;;;;;;;;;;;;;22.72;33.19;99746.19;12228686;19;20299;-81
2023/06/03 18:13:31;;;;;;;4.65;1.70;;;;;;;22.60;33.11;99757.28;12227924;19;20354;-82
2023/06/03 18:17:32;;;;;;;4.70;1.73;;;;;;;22.43;33.53;99763.75;12203531;19;20106;-82
2023/06/03 18:21:35;;;;;;;4.05;1.60;;;;;;;22.27;33.80;99769.81;12218223;19;20014;-80
2023/06/03 18:25:38;;;;;;;;;;;;;;;22.10;33.66;99771.75;12228586;19;20354;-80
2023/06/03 18:29:41;;;;;;;4.18;2.00;;;;;;;22.01;34.22;99774.53;12201719;19;19974;-78
2023/06/03 18:33:43;;;;;;;8.30;1.90;;;;;;;21.75;34.67;99778.13;12219006;19;20029;-82
2023/06/03 18:37:47;;;;;;;4.73;1.60;;;;;;;21.63;34.45;99786.34;12222656;19;20334;-82
2023/06/03 18:41:49;;;;;;;3.50;1.70;;;;;;;21.51;35.58;99783.31;12197698;19;20384;-81
2023/06/03 18:45:51;;;;;;;5.77;1.60;;;;;;;21.33;35.66;99782.38;12217269;19;20683;-79
2023/06/03 18:49:53;;;;;;;6.70;2.33;;;;;;;21.11;36.03;99778.47;12194115;19;20087;-80
2023/06/03 18:53:55;;;;;;;6.00;1.70;;;;;;;20.90;36.59;99783.75;12220864;19;20027;-78
2023/06/03 18:57:56;;;;;;;3.33;1.95;;;;;;;20.75;37.45;99788.94;12219682;19;20002;-80
2023/06/03 19:01:58;;;;;;;3.53;1.73;;;;;;;20.55;37.67;99793.06;12199198;19;20078;-81